Time;durP1;ratioP1;P1;durP2;ratioP2;P2;SDS_P1;SDS_P2;PMS_P1;PMS_P2;Temp;Humidity;BMP_temperature;BMP_pressure;BME280_temperature;BME280_humidity;BME280_pressure;Samples;Min_cycle;Max_cycle;Signal;HPM_P1;HPM_P2
2022/03/08 00:01:13;;;;;;;16.05;7.43;;;5.40;99.90;;;;;;5010404;28;20049;-64
2022/03/08 00:03:38;;;;;;;13.57;6.80;;;5.30;99.90;;;;;;5009409;28;20449;-64
2022/03/08 00:06:04;;;;;;;13.98;7.00;;;5.30;99.90;;;;;;5009262;28;20026;-64
2022/03/08 00:08:30;;;;;;;14.73;6.35;;;5.20;99.90;;;;;;5009941;28;20038;-62
2022/03/08 00:10:55;;;;;;;14.27;6.85;;;5.20;99.90;;;;;;5009975;28;20129;-61
2022/03/08 00:13:21;;;;;;;22.98;8.90;;;5.30;99.90;;;;;;5009847;28;20034;-62
2022/03/08 00:15:47;;;;;;;16.25;7.78;;;5.30;99.90;;;;;;5008745;28;20065;-63
2022/03/08 00:18:12;;;;;;;23.55;9.32;;;5.20;99.90;;;;;;5010176;28;20040;-61
2022/03/08 00:20:38;;;;;;;16.08;7.93;;;5.10;99.90;;;;;;5009194;28;20041;-61
2022/03/08 00:23:04;;;;;;;16.13;7.18;;;5.20;99.90;;;;;;5009605;28;20108;-61
2022/03/08 00:25:30;;;;;;;19.10;7.38;;;5.20;99.90;;;;;;5009219;28;20033;-62
2022/03/08 00:27:56;;;;;;;16.70;7.57;;;5.20;99.90;;;;;;5009180;28;20022;-61
2022/03/08 00:30:24;;;;;;;14.38;7.18;;;5.10;99.90;;;;;;5009762;28;20543;-62
2022/03/08 00:32:51;;;;;;;21.33;7.68;;;5.00;99.90;;;;;;5008981;28;20400;-62
2022/03/08 00:35:18;;;;;;;15.48;7.70;;;5.00;99.90;;;;;;5009042;28;20061;-61
2022/03/08 00:37:47;;;;;;;17.58;7.50;;;5.00;99.90;;;;;;5009107;28;20545;-58
2022/03/08 00:40:14;;;;;;;20.00;7.03;;;4.90;99.90;;;;;;5009845;28;20037;-61
2022/03/08 00:42:40;;;;;;;20.08;7.43;;;4.80;99.90;;;;;;5009228;28;20404;-61
2022/03/08 00:45:07;;;;;;;18.88;7.72;;;4.90;99.90;;;;;;5008924;28;20046;-63
2022/03/08 00:47:34;;;;;;;20.90;7.97;;;4.90;99.90;;;;;;5008980;28;20038;-60
2022/03/08 00:49:59;;;;;;;14.60;8.00;;;4.80;99.90;;;;;;5009409;28;20033;-62
2022/03/08 00:52:25;;;;;;;17.73;7.80;;;4.80;99.90;;;;;;5009506;28;20030;-62
2022/03/08 00:54:51;;;;;;;17.45;7.82;;;4.70;99.90;;;;;;5008592;28;20038;-61
2022/03/08 00:57:16;;;;;;;14.52;7.70;;;4.70;99.90;;;;;;5008909;28;20034;-60
2022/03/08 00:59:42;;;;;;;13.07;7.55;;;4.60;99.90;;;;;;5012583;28;20034;-61
2022/03/08 01:02:07;;;;;;;12.57;7.50;;;4.50;99.90;;;;;;5012786;28;20037;-60
2022/03/08 01:04:33;;;;;;;17.10;7.28;;;4.50;99.90;;;;;;5012996;28;20034;-64
2022/03/08 01:06:59;;;;;;;14.95;7.70;;;4.50;99.90;;;;;;5012611;28;20026;-64
2022/03/08 01:09:24;;;;;;;15.52;8.18;;;4.50;99.90;;;;;;5013097;28;20538;-65
2022/03/08 01:11:50;;;;;;;18.00;8.57;;;4.50;99.90;;;;;;5012332;28;20030;-65
2022/03/08 01:14:16;;;;;;;18.85;8.32;;;4.60;99.90;;;;;;5013384;28;20072;-65
2022/03/08 01:16:41;;;;;;;15.00;7.93;;;4.60;99.90;;;;;;5011722;28;20556;-65
2022/03/08 01:19:07;;;;;;;16.40;8.38;;;4.70;99.90;;;;;;5012580;28;20046;-65
2022/03/08 01:21:36;;;;;;;19.80;8.48;;;4.60;99.90;;;;;;5012906;28;20049;-65
2022/03/08 01:24:03;;;;;;;19.15;7.65;;;4.60;99.90;;;;;;5012156;28;20074;-64
2022/03/08 01:26:29;;;;;;;13.95;7.82;;;4.50;99.90;;;;;;5011926;28;20036;-65
2022/03/08 01:28:55;;;;;;;15.32;7.93;;;4.40;99.90;;;;;;5012749;28;20029;-64
2022/03/08 01:31:21;;;;;;;14.35;8.35;;;4.40;99.90;;;;;;5012794;28;20384;-65
2022/03/08 01:33:49;;;;;;;17.23;7.72;;;4.30;99.90;;;;;;5012707;28;20033;-63
2022/03/08 01:36:16;;;;;;;14.13;7.72;;;4.30;99.90;;;;;;5012756;28;20026;-65
2022/03/08 01:38:42;;;;;;;12.77;7.72;;;4.20;99.90;;;;;;5014073;28;20105;-63
2022/03/08 01:41:08;;;;;;;13.75;8.45;;;4.10;99.90;;;;;;5013715;28;20038;-64
2022/03/08 01:43:34;;;;;;;15.77;8.98;;;4.10;99.90;;;;;;5012958;28;20427;-64
2022/03/08 01:45:59;;;;;;;18.33;8.73;;;4.10;99.90;;;;;;5012505;28;20033;-63
2022/03/08 01:48:25;;;;;;;24.30;9.65;;;4.10;99.90;;;;;;5013556;28;20113;-64
2022/03/08 01:50:51;;;;;;;19.52;9.57;;;4.10;99.90;;;;;;5012511;28;20030;-64
2022/03/08 01:53:17;;;;;;;19.27;9.15;;;4.10;99.90;;;;;;5012012;28;20045;-64
2022/03/08 01:55:43;;;;;;;17.65;9.40;;;4.00;99.90;;;;;;5011246;28;20105;-64
2022/03/08 01:58:08;;;;;;;20.27;9.23;;;4.00;99.90;;;;;;5012077;28;20018;-62
2022/03/08 02:00:34;;;;;;;18.30;9.05;;;4.00;99.90;;;;;;5012070;28;20054;-63
2022/03/08 02:03:01;;;;;;;20.15;9.25;;;3.90;99.90;;;;;;5011681;28;20029;-62
2022/03/08 02:05:28;;;;;;;23.35;9.40;;;3.90;99.90;;;;;;5011455;28;20044;-61
2022/03/08 02:07:54;;;;;;;15.98;8.38;;;3.80;99.90;;;;;;5011470;28;20508;-62
2022/03/08 02:10:20;;;;;;;22.55;10.18;;;3.80;99.90;;;;;;5010805;28;20114;-64
2022/03/08 02:12:45;;;;;;;20.10;10.20;;;3.90;99.90;;;;;;5011276;28;20461;-63
2022/03/08 02:15:17;;;;;;;16.15;9.70;;;3.80;99.90;;;;;;5010989;28;20488;-64
2022/03/08 02:17:42;;;;;;;16.13;9.15;;;3.70;99.90;;;;;;5011308;28;20022;-64
2022/03/08 02:20:10;;;;;;;20.83;9.43;;;3.70;99.90;;;;;;5011652;28;20088;-63
2022/03/08 02:22:36;;;;;;;17.83;8.85;;;3.60;99.90;;;;;;5009796;28;20034;-63
2022/03/08 02:25:03;;;;;;;18.05;9.35;;;3.60;99.90;;;;;;5010639;28;20041;-64
2022/03/08 02:27:29;;;;;;;15.50;8.40;;;3.60;99.90;;;;;;5010957;28;20018;-64
2022/03/08 02:29:57;;;;;;;15.98;8.52;;;3.60;99.90;;;;;;5011153;28;20030;-65
2022/03/08 02:32:23;;;;;;;17.20;8.80;;;3.50;99.90;;;;;;5011234;28;20045;-64
2022/03/08 02:34:49;;;;;;;16.00;9.13;;;3.60;99.90;;;;;;5010894;28;20034;-64
2022/03/08 02:37:14;;;;;;;16.50;8.18;;;3.70;99.90;;;;;;5010895;28;20456;-64
2022/03/08 02:39:40;;;;;;;17.65;9.32;;;3.60;99.90;;;;;;5010725;28;20116;-64
2022/03/08 02:42:07;;;;;;;16.60;9.15;;;3.60;99.90;;;;;;5011019;28;20496;-64
2022/03/08 02:44:33;;;;;;;28.23;10.48;;;3.60;99.90;;;;;;5009440;28;20125;-64
2022/03/08 02:47:04;;;;;;;16.55;8.88;;;3.60;99.90;;;;;;5008936;28;20057;-64
2022/03/08 02:49:30;;;;;;;16.10;8.80;;;3.60;99.90;;;;;;5010814;28;20022;-65
2022/03/08 02:51:56;;;;;;;22.30;9.90;;;3.50;99.90;;;;;;5010605;28;20029;-64
2022/03/08 02:54:23;;;;;;;22.10;10.07;;;3.50;99.90;;;;;;5011135;28;20044;-65
2022/03/08 02:56:49;;;;;;;19.23;9.93;;;3.60;99.90;;;;;;5009225;28;20034;-64
2022/03/08 02:59:20;;;;;;;19.23;8.88;;;3.60;99.90;;;;;;5010746;28;20084;-62
2022/03/08 03:01:45;;;;;;;21.65;10.23;;;3.60;99.90;;;;;;5010524;28;20026;-64
2022/03/08 03:04:11;;;;;;;23.85;9.57;;;3.60;99.90;;;;;;5010560;28;20037;-64
2022/03/08 03:06:39;;;;;;;19.45;9.60;;;3.60;99.90;;;;;;5009951;28;20037;-64
2022/03/08 03:09:05;;;;;;;20.60;10.73;;;3.60;99.90;;;;;;5010284;28;20508;-64
2022/03/08 03:11:30;;;;;;;21.05;10.55;;;3.80;99.90;;;;;;5010342;28;20030;-64
2022/03/08 03:13:56;;;;;;;21.77;11.30;;;3.70;99.90;;;;;;5010216;28;20088;-64
2022/03/08 03:16:22;;;;;;;16.65;9.10;;;3.70;99.90;;;;;;5009808;28;20034;-64
2022/03/08 03:18:47;;;;;;;20.15;10.07;;;3.60;99.90;;;;;;5009754;28;20034;-64
2022/03/08 03:21:13;;;;;;;20.58;9.98;;;3.60;99.90;;;;;;5010463;28;20149;-63
2022/03/08 03:23:38;;;;;;;22.15;10.60;;;3.50;99.90;;;;;;5010084;28;20042;-63
2022/03/08 03:26:04;;;;;;;20.27;10.20;;;3.50;99.90;;;;;;5009817;28;20053;-64
2022/03/08 03:28:30;;;;;;;22.67;9.50;;;3.50;99.90;;;;;;5010242;28;20030;-64
2022/03/08 03:30:55;;;;;;;17.98;9.52;;;3.50;99.90;;;;;;5010278;28;20037;-64
2022/03/08 03:33:21;;;;;;;19.45;8.88;;;3.50;99.90;;;;;;5010568;28;20021;-64
2022/03/08 03:35:47;;;;;;;20.35;8.57;;;3.50;99.90;;;;;;5009018;28;20044;-64
2022/03/08 03:38:12;;;;;;;17.05;8.70;;;3.40;99.90;;;;;;5010089;28;20026;-64
2022/03/08 03:40:38;;;;;;;19.45;8.40;;;3.40;99.90;;;;;;5009617;28;20065;-64
2022/03/08 03:43:04;;;;;;;15.68;7.45;;;3.30;99.90;;;;;;5009731;28;20064;-64
2022/03/08 03:45:30;;;;;;;18.83;8.57;;;3.30;99.90;;;;;;5009039;28;20070;-64
2022/03/08 03:47:56;;;;;;;17.88;8.35;;;3.30;99.90;;;;;;5009685;28;20045;-64
2022/03/08 03:50:21;;;;;;;19.42;8.75;;;3.20;99.90;;;;;;5009999;28;20100;-64
2022/03/08 03:52:47;;;;;;;17.02;8.88;;;3.20;99.90;;;;;;5009498;28;20080;-64
2022/03/08 03:55:13;;;;;;;20.75;9.68;;;3.20;99.90;;;;;;5007903;28;20530;-63
2022/03/08 03:57:40;;;;;;;21.30;8.85;;;3.20;99.90;;;;;;5009309;28;20101;-63
2022/03/08 04:00:07;;;;;;;19.35;9.63;;;3.20;99.90;;;;;;5009977;28;20033;-63
2022/03/08 04:02:33;;;;;;;16.88;8.52;;;3.20;99.90;;;;;;5009611;28;20431;-63
2022/03/08 04:04:58;;;;;;;22.15;9.38;;;3.10;99.90;;;;;;5008757;28;20041;-62
2022/03/08 04:07:24;;;;;;;26.58;9.82;;;3.20;99.90;;;;;;5009615;28;20026;-62
2022/03/08 04:09:50;;;;;;;19.83;9.40;;;3.20;99.90;;;;;;5008864;28;20053;-63
2022/03/08 04:12:16;;;;;;;24.23;9.70;;;3.30;99.90;;;;;;5009858;28;20120;-63
2022/03/08 04:14:42;;;;;;;23.83;9.73;;;3.20;99.90;;;;;;5009343;28;20384;-63
2022/03/08 04:17:07;;;;;;;20.55;9.55;;;3.20;99.90;;;;;;5009257;28;20026;-63
2022/03/08 04:19:33;;;;;;;19.75;10.15;;;3.10;99.90;;;;;;5009265;28;20117;-63
2022/03/08 04:21:59;;;;;;;21.20;10.05;;;3.00;99.90;;;;;;5009399;28;20034;-63
2022/03/08 04:24:25;;;;;;;20.90;9.63;;;3.00;99.90;;;;;;5009236;28;20484;-63
2022/03/08 04:26:51;;;;;;;23.45;10.88;;;3.00;99.90;;;;;;5008632;28;20030;-64
2022/03/08 04:29:17;;;;;;;25.17;10.75;;;2.90;99.90;;;;;;5009632;28;20125;-64
2022/03/08 04:31:43;;;;;;;27.77;10.70;;;2.90;99.90;;;;;;5008788;28;20113;-64
2022/03/08 04:34:08;;;;;;;34.38;10.73;;;2.90;99.90;;;;;;5012704;28;20388;-64
2022/03/08 04:36:34;;;;;;;25.00;9.77;;;2.80;99.90;;;;;;5012629;28;20026;-64
2022/03/08 04:38:59;;;;;;;23.35;10.60;;;2.80;99.90;;;;;;5013113;28;20070;-64
2022/03/08 04:41:26;;;;;;;27.00;10.75;;;2.80;99.90;;;;;;5013383;28;20038;-64
2022/03/08 04:43:51;;;;;;;21.48;11.27;;;2.90;99.90;;;;;;5013117;28;20105;-64
2022/03/08 04:46:17;;;;;;;23.50;10.55;;;2.90;99.90;;;;;;5013096;28;20109;-64
2022/03/08 04:48:43;;;;;;;21.45;10.20;;;2.90;99.90;;;;;;5012905;28;20393;-63
2022/03/08 04:51:09;;;;;;;19.30;9.45;;;2.90;99.90;;;;;;5013565;28;20064;-63
2022/03/08 04:53:34;;;;;;;22.85;10.52;;;2.80;99.90;;;;;;5012859;28;20033;-64
2022/03/08 04:56:00;;;;;;;25.10;10.55;;;2.80;99.90;;;;;;5012376;28;20044;-63
2022/03/08 04:58:25;;;;;;;23.55;11.20;;;2.80;99.90;;;;;;5013202;28;20069;-63
2022/03/08 05:00:51;;;;;;;25.08;10.10;;;2.80;99.90;;;;;;5012624;28;20034;-63
2022/03/08 05:03:16;;;;;;;20.63;10.77;;;2.80;99.90;;;;;;5012958;28;20056;-63
2022/03/08 05:05:42;;;;;;;22.55;11.73;;;2.70;99.90;;;;;;5012678;28;20037;-64
2022/03/08 05:08:08;;;;;;;23.75;11.55;;;2.70;99.90;;;;;;5012874;28;20026;-63
2022/03/08 05:10:33;;;;;;;23.90;12.05;;;2.70;99.90;;;;;;5012758;28;20030;-64
2022/03/08 05:13:00;;;;;;;25.85;12.15;;;2.70;99.90;;;;;;5011812;28;20116;-64
2022/03/08 05:15:26;;;;;;;27.17;11.98;;;2.60;99.90;;;;;;5011178;28;20255;-64
2022/03/08 05:17:52;;;;;;;24.10;12.15;;;2.60;99.90;;;;;;5012678;28;20426;-63
2022/03/08 05:20:17;;;;;;;22.33;12.23;;;2.60;99.90;;;;;;5013040;28;20033;-64
2022/03/08 05:22:43;;;;;;;24.13;12.40;;;2.50;99.90;;;;;;5012038;28;20491;-64
2022/03/08 05:25:09;;;;;;;27.52;11.77;;;2.60;99.90;;;;;;5012435;28;20071;-64
2022/03/08 05:27:34;;;;;;;24.98;12.65;;;2.50;99.90;;;;;;5012871;28;20157;-64
2022/03/08 05:30:00;;;;;;;22.73;12.70;;;2.40;99.90;;;;;;5012785;28;20049;-63
2022/03/08 05:32:26;;;;;;;22.30;11.88;;;2.40;99.90;;;;;;5012931;28;20034;-64
2022/03/08 05:34:51;;;;;;;24.55;12.38;;;2.40;99.90;;;;;;5012242;28;20034;-63
2022/03/08 05:37:17;;;;;;;27.58;13.07;;;2.50;99.90;;;;;;5012495;28;20038;-64
2022/03/08 05:39:43;;;;;;;28.05;13.45;;;2.40;99.90;;;;;;5012416;28;20487;-64
2022/03/08 05:42:08;;;;;;;32.78;13.38;;;2.50;99.90;;;;;;5012323;28;20026;-63
2022/03/08 05:44:34;;;;;;;31.67;12.52;;;2.50;99.90;;;;;;5011001;28;20122;-62
2022/03/08 05:47:00;;;;;;;22.45;12.52;;;2.50;99.90;;;;;;5011711;28;20105;-63
2022/03/08 05:49:25;;;;;;;26.25;13.13;;;2.50;99.90;;;;;;5012411;28;20100;-63
2022/03/08 05:51:51;;;;;;;26.25;12.38;;;2.40;99.90;;;;;;5011730;28;20041;-63
2022/03/08 05:54:17;;;;;;;30.42;12.25;;;2.40;99.90;;;;;;5012210;28;20025;-63
2022/03/08 05:56:43;;;;;;;26.05;12.18;;;2.40;99.90;;;;;;5011321;28;20034;-63
2022/03/08 05:59:08;;;;;;;36.80;13.68;;;2.30;99.90;;;;;;5012196;28;20373;-63
2022/03/08 06:01:34;;;;;;;24.00;12.10;;;2.30;99.90;;;;;;5011816;28;20034;-64
2022/03/08 06:04:00;;;;;;;26.50;11.77;;;2.30;99.90;;;;;;5011719;28;20065;-65
2022/03/08 06:06:25;;;;;;;30.45;12.50;;;2.30;99.90;;;;;;5010783;28;20080;-65
2022/03/08 06:08:51;;;;;;;29.30;13.38;;;2.30;99.90;;;;;;5012066;28;20025;-65
2022/03/08 06:11:17;;;;;;;33.08;12.38;;;2.30;99.90;;;;;;5012578;28;20037;-64
2022/03/08 06:13:42;;;;;;;37.55;12.77;;;2.20;99.90;;;;;;5011196;28;20033;-64
2022/03/08 06:16:08;;;;;;;34.38;11.85;;;2.20;99.90;;;;;;5011246;28;20037;-65
2022/03/08 06:18:34;;;;;;;35.70;12.95;;;2.20;99.90;;;;;;5011584;28;20034;-63
2022/03/08 06:20:59;;;;;;;29.98;11.93;;;2.30;99.90;;;;;;5011357;28;20037;-62
2022/03/08 06:23:25;;;;;;;33.08;12.05;;;2.30;99.90;;;;;;5008813;28;20037;-63
2022/03/08 06:25:50;;;;;;;32.70;12.18;;;2.30;99.90;;;;;;4991096;28;20030;-63
2022/03/08 06:28:16;;;;;;;32.78;11.27;;;2.30;99.90;;;;;;4992118;28;20110;-62
2022/03/08 06:30:42;;;;;;;30.02;11.50;;;2.20;99.90;;;;;;4991609;28;20062;-63
2022/03/08 06:33:08;;;;;;;35.97;11.80;;;2.30;99.90;;;;;;4992154;28;20038;-62
2022/03/08 06:35:33;;;;;;;35.67;11.95;;;2.20;99.90;;;;;;4989779;28;20113;-64
2022/03/08 06:37:59;;;;;;;33.38;12.02;;;2.30;99.90;;;;;;4991890;28;20444;-65
2022/03/08 06:40:25;;;;;;;39.35;11.80;;;2.40;99.90;;;;;;4991872;28;20449;-64
2022/03/08 06:42:51;;;;;;;53.67;14.05;;;2.40;99.90;;;;;;5003682;28;20037;-64
2022/03/08 06:45:16;;;;;;;44.72;13.40;;;2.40;99.90;;;;;;5026675;28;20038;-63
2022/03/08 06:47:42;;;;;;;59.20;12.85;;;2.30;99.90;;;;;;5022365;28;20050;-62
2022/03/08 06:50:09;;;;;;;33.55;13.45;;;2.40;99.90;;;;;;5014843;28;20025;-65
2022/03/08 06:52:34;;;;;;;52.05;13.18;;;2.50;99.90;;;;;;5022445;28;20028;-64
2022/03/08 06:55:00;;;;;;;44.30;12.95;;;2.50;99.90;;;;;;5023533;28;20038;-65
2022/03/08 06:57:25;;;;;;;43.03;13.52;;;2.60;99.90;;;;;;5017573;28;20240;-63
2022/03/08 06:59:51;;;;;;;50.47;13.48;;;2.70;99.90;;;;;;5020930;28;20048;-65
2022/03/08 07:02:17;;;;;;;55.45;13.15;;;2.60;99.90;;;;;;5029338;28;20112;-63
2022/03/08 07:04:43;;;;;;;37.58;13.07;;;2.70;99.90;;;;;;5017201;28;20038;-65
2022/03/08 07:07:09;;;;;;;45.30;11.48;;;2.70;99.90;;;;;;5021569;28;20041;-64
2022/03/08 07:09:34;;;;;;;35.67;11.32;;;2.70;99.90;;;;;;5017890;28;20480;-58
2022/03/08 07:12:00;;;;;;;24.00;11.20;;;2.70;99.90;;;;;;5022041;28;20026;-59
2022/03/08 07:14:25;;;;;;;29.83;12.30;;;2.70;99.90;;;;;;5018325;28;20069;-60
2022/03/08 07:16:51;;;;;;;36.90;10.80;;;2.80;99.90;;;;;;5028415;28;20033;-60
2022/03/08 07:19:17;;;;;;;23.80;9.57;;;2.80;99.90;;;;;;5012632;28;20146;-61
2022/03/08 07:21:45;;;;;;;24.30;10.52;;;2.90;99.90;;;;;;5017269;28;20032;-60
2022/03/08 07:24:11;;;;;;;35.15;10.93;;;2.90;99.90;;;;;;5022485;28;20041;-60
2022/03/08 07:26:37;;;;;;;26.63;10.93;;;3.00;99.90;;;;;;5023439;28;20029;-65
2022/03/08 07:29:03;;;;;;;28.65;10.13;;;3.10;99.90;;;;;;5022847;28;20033;-66
2022/03/08 07:31:28;;;;;;;27.90;10.27;;;3.20;99.90;;;;;;5024329;28;20124;-65
2022/03/08 07:33:55;;;;;;;32.08;10.25;;;3.20;99.90;;;;;;5018150;28;20038;-63
2022/03/08 07:36:21;;;;;;;31.42;9.70;;;3.30;99.90;;;;;;5015756;28;20456;-64
2022/03/08 07:38:47;;;;;;;31.75;9.57;;;3.20;99.90;;;;;;5027725;28;20112;-61
2022/03/08 07:41:13;;;;;;;23.80;8.82;;;3.40;99.90;;;;;;5019452;28;20191;-64
2022/03/08 07:43:39;;;;;;;19.42;9.13;;;3.50;99.90;;;;;;5019288;28;20041;-62
2022/03/08 07:46:06;;;;;;;27.98;9.90;;;3.60;99.90;;;;;;5029387;28;20018;-64
2022/03/08 07:48:32;;;;;;;24.08;9.48;;;3.60;99.90;;;;;;5029490;28;20032;-63
2022/03/08 07:50:58;;;;;;;20.35;8.90;;;3.60;99.90;;;;;;5030076;28;20021;-63
2022/03/08 07:53:23;;;;;;;28.98;8.10;;;3.70;99.90;;;;;;5030324;28;20034;-64
2022/03/08 07:55:49;;;;;;;22.15;8.52;;;3.80;99.90;;;;;;5029209;28;20033;-64
2022/03/08 07:58:15;;;;;;;20.63;8.48;;;3.80;99.90;;;;;;5031044;28;20037;-64
2022/03/08 08:00:41;;;;;;;30.95;8.10;;;3.90;99.90;;;;;;5030958;28;20052;-64
2022/03/08 08:03:07;;;;;;;35.25;8.82;;;3.90;99.90;;;;;;5030591;28;20061;-64
2022/03/08 08:05:34;;;;;;;23.23;8.50;;;4.00;99.90;;;;;;5027346;28;20092;-64
2022/03/08 08:08:01;;;;;;;27.55;9.13;;;4.10;99.90;;;;;;5027583;28;20426;-64
2022/03/08 08:10:27;;;;;;;18.77;7.97;;;4.20;99.90;;;;;;5029662;28;20087;-64
2022/03/08 08:12:52;;;;;;;23.80;8.65;;;4.20;99.90;;;;;;5029091;28;20025;-64
2022/03/08 08:15:18;;;;;;;26.75;8.32;;;4.30;99.90;;;;;;5029045;28;20128;-64
2022/03/08 08:17:44;;;;;;;19.40;7.72;;;4.30;99.90;;;;;;5028875;28;20060;-64
2022/03/08 08:20:10;;;;;;;21.20;7.93;;;4.50;99.90;;;;;;5029671;28;20039;-64
2022/03/08 08:22:35;;;;;;;25.50;8.23;;;4.50;99.90;;;;;;5029289;28;20105;-64
2022/03/08 08:25:01;;;;;;;17.20;7.55;;;4.60;99.90;;;;;;5044243;28;20555;-62
2022/03/08 08:27:27;;;;;;;23.80;7.45;;;4.60;99.90;;;;;;5028971;28;20022;-62
2022/03/08 08:29:52;;;;;;;25.08;9.30;;;4.70;99.90;;;;;;5029340;28;20033;-62
2022/03/08 08:32:18;;;;;;;18.50;7.50;;;4.80;99.90;;;;;;5029066;28;20029;-61
2022/03/08 08:34:43;;;;;;;27.40;7.03;;;4.90;99.90;;;;;;5028978;28;20026;-62
2022/03/08 08:37:09;;;;;;;17.70;7.32;;;4.90;99.90;;;;;;5029034;28;20041;-62
2022/03/08 08:39:36;;;;;;;14.25;6.15;;;5.00;99.90;;;;;;5027935;28;20029;-63
2022/03/08 08:42:01;;;;;;;17.52;6.38;;;5.10;99.90;;;;;;5028794;28;20044;-63
2022/03/08 08:44:27;;;;;;;24.88;7.20;;;5.20;99.90;;;;;;5029151;28;20033;-64
2022/03/08 08:46:54;;;;;;;29.30;6.63;;;5.30;99.90;;;;;;5028889;28;20026;-64
2022/03/08 08:49:19;;;;;;;16.25;6.68;;;5.40;99.90;;;;;;5029440;28;20035;-64
2022/03/08 08:51:45;;;;;;;28.35;6.93;;;5.40;99.90;;;;;;5028912;28;20021;-65
2022/03/08 08:54:11;;;;;;;18.20;7.22;;;5.50;99.90;;;;;;5029116;28;20113;-64
2022/03/08 08:56:38;;;;;;;14.05;6.15;;;5.70;99.90;;;;;;5017407;28;20337;-61
2022/03/08 08:59:05;;;;;;;19.00;6.43;;;5.70;99.90;;;;;;5012714;28;20030;-63
2022/03/08 09:01:31;;;;;;;17.08;6.57;;;5.80;99.90;;;;;;5022513;28;20088;-63
2022/03/08 09:03:57;;;;;;;26.42;7.68;;;5.90;99.90;;;;;;5010160;28;20547;-62
2022/03/08 09:06:22;;;;;;;18.13;6.63;;;5.80;99.90;;;;;;5025060;28;20109;-64
2022/03/08 09:08:48;;;;;;;18.55;7.22;;;5.90;99.90;;;;;;5013290;28;20116;-63
2022/03/08 09:11:14;;;;;;;18.42;6.10;;;5.90;99.90;;;;;;5020319;28;20377;-64
2022/03/08 09:13:39;;;;;;;23.00;6.93;;;5.90;99.90;;;;;;5020265;28;20100;-65
2022/03/08 09:16:06;;;;;;;13.73;6.85;;;6.10;99.90;;;;;;4987726;28;20122;-64
2022/03/08 09:18:31;;;;;;;13.02;5.63;;;6.00;99.90;;;;;;5009941;28;20509;-61
2022/03/08 09:20:57;;;;;;;14.85;5.85;;;6.10;99.90;;;;;;5032642;28;20071;-61
2022/03/08 09:23:23;;;;;;;15.52;5.30;;;6.10;99.90;;;;;;5031344;28;20128;-62
2022/03/08 09:25:48;;;;;;;14.93;5.97;;;6.10;99.90;;;;;;5031978;28;20035;-62
2022/03/08 09:28:14;;;;;;;12.50;5.18;;;6.30;99.90;;;;;;5032290;28;20030;-62
2022/03/08 09:30:42;;;;;;;15.15;5.70;;;6.40;99.90;;;;;;5021298;28;20032;-63
2022/03/08 09:33:08;;;;;;;15.48;6.25;;;6.50;99.90;;;;;;5012881;28;20030;-63
2022/03/08 09:35:34;;;;;;;15.98;6.18;;;6.70;99.90;;;;;;5011848;28;20042;-64
2022/03/08 09:38:01;;;;;;;12.45;5.72;;;6.90;99.90;;;;;;5012323;28;20044;-63
2022/03/08 09:40:26;;;;;;;15.25;5.70;;;6.80;99.90;;;;;;5010749;28;20026;-64
2022/03/08 09:42:52;;;;;;;9.68;5.43;;;6.80;99.90;;;;;;5005030;28;20037;-64
2022/03/08 09:45:18;;;;;;;14.07;5.30;;;6.80;99.90;;;;;;4992388;28;20077;-62
2022/03/08 09:47:45;;;;;;;16.55;6.15;;;7.00;99.90;;;;;;5000815;28;20045;-63
2022/03/08 09:50:12;;;;;;;14.55;6.00;;;7.20;99.90;;;;;;5012137;28;20026;-63
2022/03/08 09:52:41;;;;;;;13.90;5.43;;;7.30;99.90;;;;;;5011975;28;20026;-64
2022/03/08 09:55:14;;;;;;;11.50;4.60;;;7.30;99.90;;;;;;5011488;28;20030;-63
2022/03/08 09:57:40;;;;;;;16.50;4.95;;;7.50;99.90;;;;;;5011751;28;20077;-64
2022/03/08 10:00:07;;;;;;;11.73;4.95;;;7.50;99.90;;;;;;5002122;28;20027;-63
2022/03/08 10:02:50;;;;;;;15.50;6.03;;;7.80;99.90;;;;;;4992900;28;20447;-63
2022/03/08 10:05:21;;;;;;;12.88;5.55;;;8.10;99.90;;;;;;4992297;28;20459;-63
2022/03/08 10:08:14;;;;;;;12.55;5.30;;;8.10;99.90;;;;;;5007168;28;20525;-64
2022/03/08 10:10:45;;;;;;;11.15;5.57;;;8.00;99.90;;;;;;4988247;28;20046;-64
2022/03/08 10:13:12;;;;;;;21.25;5.63;;;7.90;99.90;;;;;;4999907;28;20042;-64
2022/03/08 10:15:39;;;;;;;10.68;4.88;;;7.80;99.90;;;;;;4999567;28;20026;-63
2022/03/08 10:18:06;;;;;;;12.60;4.95;;;8.10;99.90;;;;;;4992610;28;20026;-64
2022/03/08 10:20:33;;;;;;;12.68;4.63;;;8.30;99.90;;;;;;5010343;28;20030;-63
2022/03/08 10:23:01;;;;;;;14.52;5.55;;;8.40;99.90;;;;;;5011561;28;20022;-63
2022/03/08 10:25:30;;;;;;;13.90;5.47;;;8.50;99.70;;;;;;5010822;28;20085;-64
2022/03/08 10:27:56;;;;;;;13.45;5.18;;;8.80;98.20;;;;;;5009485;28;20107;-63
2022/03/08 10:30:44;;;;;;;9.60;5.43;;;8.90;98.10;;;;;;5007011;28;20104;-62
2022/03/08 10:33:10;;;;;;;9.07;4.75;;;9.20;97.50;;;;;;5008751;28;20387;-63
2022/03/08 10:35:41;;;;;;;12.00;5.47;;;9.20;96.50;;;;;;5008011;28;20037;-63
2022/03/08 10:38:09;;;;;;;10.45;4.88;;;9.20;96.70;;;;;;5008842;28;20037;-63
2022/03/08 10:40:35;;;;;;;15.40;4.30;;;9.50;95.40;;;;;;5009223;28;20495;-63
2022/03/08 10:43:03;;;;;;;7.38;3.78;;;9.70;94.40;;;;;;5010698;28;20511;-63
2022/03/08 10:45:31;;;;;;;7.95;3.67;;;9.90;92.80;;;;;;5010118;28;20022;-63
2022/03/08 10:47:57;;;;;;;8.30;4.13;;;9.70;90.20;;;;;;5009638;28;20399;-63
2022/03/08 10:50:26;;;;;;;6.15;3.00;;;9.60;90.90;;;;;;5011012;28;20022;-64
2022/03/08 10:52:54;;;;;;;10.90;3.35;;;9.70;88.60;;;;;;5010684;28;20125;-63
2022/03/08 10:55:25;;;;;;;5.68;3.50;;;9.90;84.80;;;;;;5010452;28;20023;-64
2022/03/08 10:57:55;;;;;;;4.45;3.03;;;10.00;84.90;;;;;;5010525;28;20022;-64
2022/03/08 11:00:27;;;;;;;6.60;3.45;;;10.10;80.50;;;;;;5011144;28;20030;-64
2022/03/08 11:02:54;;;;;;;9.20;3.33;;;10.20;78.20;;;;;;5010599;28;20076;-64
2022/03/08 11:05:23;;;;;;;6.60;3.80;;;10.00;76.50;;;;;;5010269;28;20385;-64
2022/03/08 11:07:49;;;;;;;7.90;4.13;;;10.00;79.20;;;;;;5003405;28;20077;-64
2022/03/08 11:10:15;;;;;;;6.43;3.20;;;10.20;78.80;;;;;;4996816;28;20445;-65
2022/03/08 11:12:41;;;;;;;11.73;3.88;;;10.40;76.90;;;;;;4997250;28;20018;-65
2022/03/08 11:15:10;;;;;;;9.25;3.70;;;10.50;74.60;;;;;;5008493;28;20081;-63
2022/03/08 11:17:38;;;;;;;7.78;4.13;;;10.70;74.00;;;;;;4994456;28;20117;-63
2022/03/08 11:20:06;;;;;;;10.18;4.10;;;10.80;73.90;;;;;;5004064;28;20072;-64
2022/03/08 11:22:33;;;;;;;8.80;3.70;;;10.60;74.90;;;;;;5013047;28;20510;-64
2022/03/08 11:24:59;;;;;;;8.68;3.83;;;10.80;74.60;;;;;;5022526;28;20034;-65
2022/03/08 11:27:25;;;;;;;10.85;3.70;;;10.60;76.00;;;;;;4995816;28;20031;-65
2022/03/08 11:29:51;;;;;;;12.40;4.13;;;10.80;75.10;;;;;;4990378;28;20443;-64
2022/03/08 11:32:24;;;;;;;10.13;4.53;;;10.90;73.30;;;;;;4990694;28;20129;-65
2022/03/08 11:34:56;;;;;;;8.15;3.60;;;11.00;74.50;;;;;;5006422;28;20392;-65
2022/03/08 11:37:23;;;;;;;9.02;3.45;;;11.10;72.70;;;;;;5010342;28;20167;-64
2022/03/08 11:40:11;;;;;;;7.35;4.07;;;11.20;72.40;;;;;;5001843;28;20125;-65
2022/03/08 11:42:44;;;;;;;11.57;3.88;;;11.30;71.20;;;;;;5006837;28;20583;-65
2022/03/08 11:45:17;;;;;;;9.85;4.30;;;11.50;70.30;;;;;;5004291;28;20039;-64
2022/03/08 11:47:57;;;;;;;9.68;3.80;;;11.60;69.80;;;;;;4990139;28;20058;-64
2022/03/08 11:50:36;;;;;;;13.40;3.67;;;11.60;69.70;;;;;;4990723;28;20122;-64
2022/03/08 11:53:06;;;;;;;9.48;4.18;;;11.70;70.00;;;;;;4990240;28;20418;-65
2022/03/08 11:55:47;;;;;;;7.97;4.13;;;11.70;68.50;;;;;;4989897;28;20023;-65
2022/03/08 11:58:19;;;;;;;7.40;3.40;;;11.80;68.10;;;;;;5002126;28;20056;-65
2022/03/08 12:00:52;;;;;;;8.32;3.33;;;11.70;65.70;;;;;;5009782;28;20583;-64
2022/03/08 12:03:23;;;;;;;9.63;2.78;;;11.90;64.60;;;;;;5010249;28;20056;-64
2022/03/08 12:06:09;;;;;;;15.47;3.50;;;12.70;63.70;;;;;;5009589;28;20022;-63
2022/03/08 12:08:38;;;;;;;6.47;3.35;;;14.10;58.00;;;;;;5009877;28;20076;-65
2022/03/08 12:11:16;;;;;;;8.32;3.38;;;15.20;54.70;;;;;;5007475;28;20026;-66
2022/03/08 12:13:57;;;;;;;8.90;2.80;;;16.10;51.60;;;;;;5004475;28;20387;-65
2022/03/08 12:16:25;;;;;;;7.15;2.83;;;16.00;48.80;;;;;;4991115;28;20084;-66
2022/03/08 12:18:59;;;;;;;4.22;2.38;;;16.00;48.40;;;;;;4997932;28;20044;-65
2022/03/08 12:21:24;;;;;;;6.43;2.72;;;15.40;48.30;;;;;;5010283;28;20041;-65
2022/03/08 12:23:52;;;;;;;8.23;3.45;;;15.90;49.40;;;;;;5009259;28;20030;-65
2022/03/08 12:26:24;;;;;;;10.00;3.15;;;16.30;47.50;;;;;;5008826;28;20128;-65
2022/03/08 12:29:02;;;;;;;;;;;16.30;47.50;;;;;;5009886;28;20317;-63
2022/03/08 12:31:27;;;;;;;6.13;2.75;;;16.30;47.30;;;;;;5008078;28;19920;-66
2022/03/08 12:34:06;;;;;;;9.07;3.35;;;16.80;46.40;;;;;;5000978;28;20496;-66
2022/03/08 12:36:34;;;;;;;18.90;3.63;;;17.20;45.70;;;;;;5006944;28;20084;-65
2022/03/08 12:39:00;;;;;;;6.60;3.30;;;17.60;45.60;;;;;;5009103;28;20381;-66
2022/03/08 12:41:27;;;;;;;7.65;3.72;;;18.20;43.60;;;;;;4995932;28;20065;-65